Daly City, CA (94017)

11:58 AM PDT on September 22, 2014 (GMT -0700)
Ingleside District | Change Station
CLOSE
Current Station
Personal Weather Station
Location: San Francisco, CA
Elevation: 148 ft
Nearby Weather Stations

Elev 148 ft 37.71 °N, 122.48 °W | Updated 7 seconds ago

Clear
Clear
65.5 °F
Feels Like 65.5 °F
N
4.0
Wind Variable Wind from WSW
Gusts 11.0 mph

Today
High -- | Low -- °F
--% Chance of Precip.
Yesterday
High -- | Low -- °F
Precip. -- in
6:57 AM 7:06 PM
Waning Crescent, 2% visible
Pressure 30.04 in
Visibility 10.0 miles
Clouds Few 1900 ft
Dew Point 60 °F
Humidity 84%
Rainfall 0.00 in
Snow Depth 0 in , 1 in , 0 in
UV 5.4 out of 12
Pollen 3.70 out of 12
Air Quality Not available.
Flu Activity Not available.
METAR KSFO 221756Z VRB06KT 10SM FEW019 22/15 A3004 RMK AO2 SLP171 T02220150 10222 20189 50004 $

More Conditions Fewer Conditions

Pressure 30.04 in
Visibility 10.0 miles
Clouds Few 1900 ft
Dew Point 60 °F
Humidity 84%
Rainfall 0.00 in
Snow Depth 0 in , 1 in , 0 in
UV 5.4 out of 12
Pollen 3.70 out of 12
Air Quality Not available.
Flu Activity Not available.
METAR KSFO 221756Z VRB06KT 10SM FEW019 22/15 A3004 RMK AO2 SLP171 T02220150 10222 20189 50004 $

More Conditions Fewer Conditions

10-Day Weather Forecast

Almanac

Astronomy

Sep. 22, 2014 Rise Set
Actual Time 6:57 AM PDT 7:06 PM PDT
Civil Twilight 6:31 AM PDT 7:32 PM PDT
Nautical Twilight 6:01 AM PDT 8:03 PM PDT
Astronomical Twilight 5:29 AM PDT 8:34 PM PDT
Moon 5:32 AM PDT 6:16 PM PDT
Length of Visible Light 13h 01m
Length of Day
12h 08m
Tomorrow will be 2m 24s shorter.
Waning Crescent, 2% of the Moon is Illuminated
Today
Waning Crescent
Sep 24
New
Oct 1
First Quarter
Oct 8
Full
Oct 15
Last Quarter

Today's Extremes

State Highs State Lows

Community

WunderPhotos

Upload Photos

1,755,512 photos uploaded!

WunderBlogs® & News

Nearby

Snow Depth

Station Depth Elevation
Leavitt Meadows 0 in 7200 ft
Summit Meadow 1 in 9122 ft
Monitor Pass 0 in 8350 ft
Adin Mountain 0 in 6200 ft

Earthquake Activity

City Distance Mag. Time & Date
Sonoma, California 44 miles 2.7 1:17 PM PDT
2014-09-21
Cloverdale, California 82 miles 2.5 9:15 PM PDT
2014-09-20
Livermore, California 40 miles 2.6 3:37 AM PDT
2014-09-19
Minimum magnitude displayed is 2.5.

Coastal Water Temperatures

Place Temperature
Point Reyes, CA 64.9 °F
San Francisco, CA 66.0 °F
Richmond, CA 68.0 °F

Nearby Weather Stations